Time,TemperatureF,DewpointF,PressureIn,WindDirection,WindDirectionDegrees,WindSpeedMPH,WindSpeedGustMPH,Humidity,HourlyPrecipIn,Conditions,Clouds,dailyrainin,SoftwareType,DateUTC
2013-11-19 00:21:00,34.0,29.0,-100.00,SE,145,7.0,8.0,83,0.00,,,-99.99,,2013-11-19 06:21:00,
2013-11-19 00:42:00,33.0,29.0,-100.00,SSE,150,9.0,10.0,84,0.00,,,-99.99,,2013-11-19 06:42:00,
2013-11-19 01:22:00,33.0,29.0,-100.00,SE,145,9.0,10.0,84,0.00,,,-99.99,,2013-11-19 07:22:00,
2013-11-19 01:42:00,33.0,29.0,-100.00,SSE,155,7.0,9.0,85,0.00,,,-99.99,,2013-11-19 07:42:00,
2013-11-19 02:22:00,33.0,29.0,-100.00,SSE,150,9.0,13.0,84,0.00,,,-99.99,,2013-11-19 08:22:00,
2013-11-19 02:42:00,34.0,29.0,-100.00,SSE,160,8.0,11.0,82,0.00,,,-99.99,,2013-11-19 08:42:00,
2013-11-19 03:21:00,32.0,28.0,-100.00,SSE,160,6.0,9.0,83,0.00,,,-99.99,,2013-11-19 09:21:00,
2013-11-19 03:43:00,33.0,28.0,-100.00,SSE,155,9.0,10.0,83,0.00,,,-99.99,,2013-11-19 09:43:00,
2013-11-19 04:23:00,32.0,28.0,-100.00,SSE,165,9.0,11.0,83,0.00,,,-99.99,,2013-11-19 10:23:00,
2013-11-19 04:43:00,32.0,28.0,-100.00,SSE,165,8.0,10.0,84,0.00,,,-99.99,,2013-11-19 10:43:00,
2013-11-19 05:22:00,32.0,27.0,-100.00,SSE,165,7.0,9.0,82,0.00,,,-99.99,,2013-11-19 11:22:00,
2013-11-19 05:42:00,32.0,27.0,-100.00,SSE,165,6.0,9.0,83,0.00,,,-99.99,,2013-11-19 11:42:00,
2013-11-19 06:21:00,32.0,27.0,-100.00,SSE,160,4.0,6.0,82,0.00,,,-99.99,,2013-11-19 12:21:00,
2013-11-19 06:42:00,33.0,27.0,-100.00,SSE,160,9.0,12.0,81,0.00,,,-99.99,,2013-11-19 12:42:00,
2013-11-19 07:42:00,32.0,27.0,-100.00,SSE,155,11.0,13.0,80,0.00,,,-99.99,,2013-11-19 13:42:00,
2013-11-19 08:22:00,35.0,28.0,-100.00,SSE,165,14.0,16.0,75,0.00,,,-99.99,,2013-11-19 14:22:00,
2013-11-19 08:42:00,36.0,28.0,-100.00,SSE,165,16.0,19.0,73,0.00,,,-99.99,,2013-11-19 14:42:00,
2013-11-19 09:21:00,37.0,29.0,-100.00,SSE,165,15.0,18.0,70,0.00,,,-99.99,,2013-11-19 15:21:00,
2013-11-19 09:43:00,39.0,30.0,-100.00,SSE,165,17.0,21.0,68,0.00,,,-99.99,,2013-11-19 15:43:00,
2013-11-19 10:23:00,43.0,31.0,-100.00,South,175,16.0,19.0,63,0.00,,,-99.99,,2013-11-19 16:23:00,
2013-11-19 10:43:00,45.0,31.0,-100.00,South,175,18.0,22.0,57,0.00,,,-99.99,,2013-11-19 16:43:00,
2013-11-19 11:22:00,50.0,31.0,-100.00,South,170,20.0,26.0,47,0.00,,,-99.99,,2013-11-19 17:22:00,
2013-11-19 11:43:00,51.0,30.0,-100.00,South,180,20.0,30.0,43,0.00,,,-99.99,,2013-11-19 17:43:00,
2013-11-19 12:22:00,53.0,29.0,-100.00,South,180,19.0,33.0,38,0.00,,,-99.99,,2013-11-19 18:22:00,
2013-11-19 12:42:00,54.0,28.0,-100.00,South,185,25.0,31.0,36,0.00,,,-99.99,,2013-11-19 18:42:00,
2013-11-19 13:21:00,56.0,28.0,-100.00,South,180,20.0,35.0,34,0.00,,,-99.99,,2013-11-19 19:21:00,
2013-11-19 13:42:00,56.0,28.0,-100.00,South,185,28.0,38.0,34,0.00,,,-99.99,,2013-11-19 19:42:00,
2013-11-19 14:21:00,56.0,29.0,-100.00,South,185,23.0,32.0,33,0.00,,,-99.99,,2013-11-19 20:21:00,
2013-11-19 14:42:00,56.0,28.0,-100.00,South,175,27.0,34.0,33,0.00,,,-99.99,,2013-11-19 20:42:00,
2013-11-19 15:21:00,56.0,28.0,-100.00,South,170,25.0,36.0,33,0.00,,,-99.99,,2013-11-19 21:21:00,
2013-11-19 15:43:00,55.0,27.0,-100.00,South,180,21.0,35.0,33,0.00,,,-99.99,,2013-11-19 21:43:00,
2013-11-19 16:23:00,54.0,26.0,-100.00,SSE,165,24.0,34.0,34,0.00,,,-99.99,,2013-11-19 22:23:00,
2013-11-19 16:42:00,53.0,26.0,-100.00,SSE,155,21.0,27.0,35,0.00,,,-99.99,,2013-11-19 22:42:00,
2013-11-19 17:22:00,52.0,27.0,-100.00,SSE,150,21.0,28.0,37,0.00,,,-99.99,,2013-11-19 23:22:00,
2013-11-19 17:43:00,52.0,27.0,-100.00,SSE,155,21.0,28.0,38,0.00,,,-99.99,,2013-11-19 23:43:00,
2013-11-19 18:11:00,51.0,27.0,-100.00,SSE,155,21.0,26.0,40,0.00,,,-99.99,,2013-11-20 00:11:00,
2013-11-19 18:21:00,51.0,28.0,-100.00,SSE,155,23.0,29.0,40,0.00,,,-99.99,,2013-11-20 00:21:00,
2013-11-19 18:42:00,49.0,28.0,-100.00,SSE,155,21.0,29.0,43,0.00,,,-99.99,,2013-11-20 00:42:00,
2013-11-19 19:21:00,49.0,28.0,-100.00,SSE,160,23.0,32.0,44,0.00,,,-99.99,,2013-11-20 01:21:00,
2013-11-19 19:42:00,49.0,28.0,-100.00,SSE,155,24.0,34.0,44,0.00,,,-99.99,,2013-11-20 01:42:00,
2013-11-19 20:21:00,48.0,28.0,-100.00,SSE,160,20.0,28.0,45,0.00,,,-99.99,,2013-11-20 02:21:00,
2013-11-19 20:42:00,48.0,28.0,-100.00,SSE,155,21.0,29.0,45,0.00,,,-99.99,,2013-11-20 02:42:00,
2013-11-19 21:11:00,48.0,28.0,-100.00,SSE,165,21.0,30.0,44,0.00,,,-99.99,,2013-11-20 03:11:00,
2013-11-19 21:21:00,48.0,28.0,-100.00,SSE,160,24.0,35.0,44,0.00,,,-99.99,,2013-11-20 03:21:00,
2013-11-19 21:44:00,48.0,27.0,-100.00,SSE,165,26.0,35.0,44,0.00,,,-99.99,,2013-11-20 03:44:00,
2013-11-19 22:23:00,48.0,27.0,-100.00,SSE,165,22.0,29.0,44,0.00,,,-99.99,,2013-11-20 04:23:00,
2013-11-19 22:43:00,48.0,27.0,-100.00,South,175,23.0,28.0,43,0.00,,,-99.99,,2013-11-20 04:43:00,
2013-11-19 23:22:00,48.0,27.0,-100.00,SSE,165,22.0,30.0,43,0.00,,,-99.99,,2013-11-20 05:22:00,
2013-11-19 23:43:00,48.0,27.0,-100.00,South,180,22.0,29.0,43,0.00,,,-99.99,,2013-11-20 05:43:00,